Time;durP1;ratioP1;P1;durP2;ratioP2;P2;SDS_P1;SDS_P2;PMS_P1;PMS_P2;Temp;Humidity;BMP_temperature;BMP_pressure;BME280_temperature;BME280_humidity;BME280_pressure;Samples;Min_cycle;Max_cycle;Signal;HPM_P1;HPM_P2
2022/10/16 00:00:43;;;;;;;;;;;14.70;99.90;;;;;;5096099;28;19904;-74
2022/10/16 00:03:09;;;;;;;;;;;14.80;99.90;;;;;;5095592;28;19908;-75
2022/10/16 00:05:39;;;;;;;;;;;14.80;99.90;;;;;;5077318;28;20006;-75
2022/10/16 00:08:05;;;;;;;;;;;14.80;99.90;;;;;;5095733;28;19908;-75
2022/10/16 00:10:30;;;;;;;;;;;14.70;99.90;;;;;;5077172;28;19980;-74
2022/10/16 00:12:56;;;;;;;;;;;14.80;99.90;;;;;;5095897;28;20397;-74
2022/10/16 00:15:21;;;;;;;;;;;14.80;99.90;;;;;;5095225;28;19904;-74
2022/10/16 00:17:47;;;;;;;;;;;14.70;99.90;;;;;;5095873;28;19904;-74
2022/10/16 00:20:12;;;;;;;;;;;14.70;99.90;;;;;;5095247;28;19904;-74
2022/10/16 00:22:38;;;;;;;;;;;14.70;99.90;;;;;;5095472;28;20344;-75
2022/10/16 00:25:04;;;;;;;;;;;14.70;99.90;;;;;;5095126;28;19911;-75
2022/10/16 00:27:29;;;;;;;;;;;14.80;99.90;;;;;;5095143;28;19904;-74
2022/10/16 00:29:55;;;;;;;;;;;14.80;99.90;;;;;;5094783;28;19904;-75
2022/10/16 00:32:20;;;;;;;;;;;14.80;99.90;;;;;;5095596;28;19908;-75
2022/10/16 00:34:46;;;;;;;;;;;14.80;99.90;;;;;;5094771;28;20003;-75
2022/10/16 00:37:12;;;;;;;;;;;14.90;99.90;;;;;;5076749;28;19904;-74
2022/10/16 00:39:38;;;;;;;;;;;14.90;99.90;;;;;;5095116;28;19904;-74
2022/10/16 00:42:03;;;;;;;;;;;14.90;99.90;;;;;;5094807;28;19911;-74
2022/10/16 00:44:52;;;;;;;;;;;14.80;99.90;;;;;;5094798;28;19904;-74
2022/10/16 00:47:36;;;;;;;;;;;14.90;99.90;;;;;;5094974;28;20283;-74
2022/10/16 00:50:02;;;;;;;;;;;14.80;99.90;;;;;;5094655;28;19903;-75
2022/10/16 00:52:27;;;;;;;;;;;14.70;99.90;;;;;;5095155;28;20322;-74
2022/10/16 00:54:54;;;;;;;;;;;14.70;99.90;;;;;;5094962;28;19931;-75
2022/10/16 00:57:19;;;;;;;;;;;14.70;99.90;;;;;;5094834;28;19904;-74
2022/10/16 00:59:45;;;;;;;;;;;14.70;99.90;;;;;;5094865;28;19904;-75
2022/10/16 01:02:12;;;;;;;;;;;14.70;99.90;;;;;;5094520;28;19956;-74
2022/10/16 01:04:58;;;;;;;;;;;14.70;99.90;;;;;;5094417;28;19911;-74
2022/10/16 01:07:33;;;;;;;;;;;14.70;99.90;;;;;;5094331;28;19904;-74
2022/10/16 01:10:14;;;;;;;;;;;14.70;99.90;;;;;;5094658;28;19946;-74
2022/10/16 01:12:44;;;;;;;;;;;14.70;99.90;;;;;;5094206;28;19987;-74
2022/10/16 01:15:26;;;;;;;;;;;14.70;99.90;;;;;;5094461;28;19904;-74
2022/10/16 01:18:12;;;;;;;;;;;14.70;99.90;;;;;;5075938;28;20378;-74
2022/10/16 01:20:50;;;;;;;;;;;14.80;99.90;;;;;;5093496;28;19905;-74
2022/10/16 01:23:18;;;;;;;;;;;14.80;99.90;;;;;;5094415;28;19908;-74
2022/10/16 01:25:44;;;;;;;;;;;14.80;99.90;;;;;;5094118;28;20375;-75
2022/10/16 01:28:11;;;;;;;;;;;14.70;99.90;;;;;;5094179;28;19908;-74
2022/10/16 01:30:37;;;;;;;;;;;14.70;99.90;;;;;;5093544;28;19919;-74
2022/10/16 01:33:08;;;;;;;;;;;14.70;99.90;;;;;;5094013;28;19912;-75
2022/10/16 01:35:38;;;;;;;;;;;14.70;99.90;;;;;;5094395;28;19904;-74
2022/10/16 01:38:03;;;;;;;;;;;14.70;99.90;;;;;;5094149;28;19942;-74
2022/10/16 01:40:30;;;;;;;;;;;14.60;99.90;;;;;;5094595;28;19908;-74
2022/10/16 01:42:59;;;;;;;;;;;14.60;99.90;;;;;;5094263;28;19908;-74
2022/10/16 01:45:26;;;;;;;;;;;14.60;99.90;;;;;;5095303;28;19904;-74
2022/10/16 01:47:52;;;;;;;;;;;14.60;99.90;;;;;;5098218;28;20000;-74
2022/10/16 01:50:18;;;;;;;;;;;14.60;99.90;;;;;;5098061;28;19905;-73
2022/10/16 01:52:46;;;;;;;;;;;14.50;99.90;;;;;;5098587;28;19912;-74
2022/10/16 01:55:14;;;;;;;;;;;14.50;99.90;;;;;;5098064;28;19998;-74
2022/10/16 01:57:41;;;;;;;;;;;14.60;99.90;;;;;;5098316;28;19904;-74
2022/10/16 02:00:10;;;;;;;;;;;14.50;99.90;;;;;;5097961;28;20027;-74
2022/10/16 02:02:37;;;;;;;;;;;14.60;99.90;;;;;;5097886;28;19991;-74
2022/10/16 02:05:06;;;;;;;;;;;14.50;99.90;;;;;;5098366;28;19904;-74
2022/10/16 02:07:32;;;;;;;;;;;14.60;99.90;;;;;;5097825;28;19904;-74
2022/10/16 02:09:57;;;;;;;;;;;14.50;99.90;;;;;;5079561;28;19907;-75
2022/10/16 02:12:27;;;;;;;;;;;14.50;99.90;;;;;;5098395;28;20428;-74
2022/10/16 02:14:53;;;;;;;;;;;14.50;99.90;;;;;;5097773;28;20393;-73
2022/10/16 02:17:20;;;;;;;;;;;14.50;99.90;;;;;;5079401;28;19908;-74
2022/10/16 02:19:47;;;;;;;;;;;14.50;99.90;;;;;;5079472;28;19908;-75
2022/10/16 02:22:25;;;;;;;;;;;14.40;99.90;;;;;;5098146;28;19904;-74
2022/10/16 02:24:51;;;;;;;;;;;14.30;99.90;;;;;;5097542;28;19904;-74
2022/10/16 02:27:31;;;;;;;;;;;14.30;99.90;;;;;;5098059;28;20245;-74
2022/10/16 02:30:09;;;;;;;;;;;14.30;99.90;;;;;;5078723;28;20327;-75
2022/10/16 02:32:35;;;;;;;;;;;14.30;99.90;;;;;;5097637;28;19962;-75
2022/10/16 02:35:03;;;;;;;;;;;14.10;99.90;;;;;;5079457;28;19916;-75
2022/10/16 02:37:29;;;;;;;;;;;14.20;99.90;;;;;;5079020;28;20403;-74
2022/10/16 02:39:56;;;;;;;;;;;14.20;99.90;;;;;;5097448;28;19940;-74
2022/10/16 02:42:27;;;;;;;;;;;14.20;99.90;;;;;;5097486;28;19904;-75
2022/10/16 02:44:52;;;;;;;;;;;14.20;99.90;;;;;;5097439;28;19904;-74
2022/10/16 02:47:18;;;;;;;;;;;14.20;99.90;;;;;;5097075;28;19904;-75
2022/10/16 02:49:43;;;;;;;;;;;14.20;99.90;;;;;;5097335;28;19904;-75
2022/10/16 02:52:09;;;;;;;;;;;14.10;99.90;;;;;;5096876;28;19908;-74
2022/10/16 02:54:34;;;;;;;;;;;14.10;99.90;;;;;;5096977;28;19971;-75
2022/10/16 02:57:00;;;;;;;;;;;14.10;99.90;;;;;;5096972;28;20002;-74
2022/10/16 02:59:25;;;;;;;;;;;14.00;99.90;;;;;;5096733;28;19953;-74
2022/10/16 03:01:51;;;;;;;;;;;14.10;99.90;;;;;;5097018;28;19933;-75
2022/10/16 03:04:16;;;;;;;;;;;14.10;99.90;;;;;;5096686;28;20355;-74
2022/10/16 03:06:42;;;;;;;;;;;14.10;99.90;;;;;;5097255;28;19911;-74
2022/10/16 03:09:07;;;;;;;;;;;14.00;99.90;;;;;;5078532;28;19904;-74
2022/10/16 03:11:33;;;;;;;;;;;14.00;99.90;;;;;;5096934;28;19904;-75
2022/10/16 03:13:58;;;;;;;;;;;13.90;99.90;;;;;;5078244;28;19951;-74
2022/10/16 03:16:24;;;;;;;;;;;14.00;99.90;;;;;;5096994;28;20000;-74
2022/10/16 03:18:49;;;;;;;;;;;13.90;99.90;;;;;;5096769;28;19996;-75
2022/10/16 03:21:15;;;;;;;;;;;13.90;99.90;;;;;;5096387;28;19955;-74
2022/10/16 03:23:41;;;;;;;;;;;13.90;99.90;;;;;;5096383;28;19957;-75
2022/10/16 03:28:50;;;;;;;;;;;13.90;99.90;;;;;;5096329;28;19911;-75
2022/10/16 03:31:17;;;;;;;;;;;14.00;99.90;;;;;;5095943;28;19916;-74
2022/10/16 03:33:42;;;;;;;;;;;14.00;99.90;;;;;;5096032;28;19916;-75
2022/10/16 03:36:08;;;;;;;;;;;14.10;99.90;;;;;;5096313;28;20314;-74
2022/10/16 03:38:33;;;;;;;;;;;14.10;99.90;;;;;;5096187;28;19904;-74
2022/10/16 03:40:59;;;;;;;;;;;14.00;99.90;;;;;;5096019;28;19911;-74
2022/10/16 03:43:24;;;;;;;;;;;14.10;99.90;;;;;;5096238;28;19904;-75
2022/10/16 03:45:51;;;;;;;;;;;14.00;99.90;;;;;;5095945;28;19945;-74
2022/10/16 03:48:17;;;;;;;;;;;14.00;99.90;;;;;;5095857;28;20382;-74
2022/10/16 03:50:42;;;;;;;;;;;14.10;99.90;;;;;;5096427;28;20236;-75
2022/10/16 03:53:08;;;;;;;;;;;14.10;99.90;;;;;;5095709;28;19915;-75
2022/10/16 03:55:34;;;;;;;;;;;14.10;99.90;;;;;;5095797;28;20424;-75
2022/10/16 03:57:59;;;;;;;;;;;14.10;99.90;;;;;;5095882;28;20003;-75
2022/10/16 04:00:25;;;;;;;;;;;14.10;99.90;;;;;;5095564;28;20260;-75
2022/10/16 04:02:50;;;;;;;;;;;14.10;99.90;;;;;;5077472;28;19904;-74
2022/10/16 04:05:16;;;;;;;;;;;14.20;99.90;;;;;;5095513;28;19915;-75
2022/10/16 04:07:41;;;;;;;;;;;14.10;99.90;;;;;;5095758;28;19912;-74
2022/10/16 04:10:07;;;;;;;;;;;14.20;99.90;;;;;;5095665;28;19946;-74
2022/10/16 04:12:32;;;;;;;;;;;14.20;99.90;;;;;;5095328;28;19977;-74
2022/10/16 04:14:58;;;;;;;;;;;14.20;99.90;;;;;;5095398;28;19904;-74
2022/10/16 04:17:24;;;;;;;;;;;14.20;99.90;;;;;;5095852;28;19904;-75
2022/10/16 04:19:49;;;;;;;;;;;14.20;99.90;;;;;;5095303;28;20379;-75
2022/10/16 04:22:15;;;;;;;;;;;14.30;99.90;;;;;;5095228;28;19904;-75
2022/10/16 04:24:40;;;;;;;;;;;14.30;99.90;;;;;;5076918;28;20040;-75
2022/10/16 04:27:06;;;;;;;;;;;14.30;99.90;;;;;;5095362;28;20276;-74
2022/10/16 04:29:31;;;;;;;;;;;14.30;99.90;;;;;;5095158;28;19904;-74
2022/10/16 04:31:57;;;;;;;;;;;14.30;99.90;;;;;;5094454;28;20397;-75
2022/10/16 04:34:22;;;;;;;;;;;14.40;99.90;;;;;;5095061;28;19916;-74
2022/10/16 04:36:51;;;;;;;;;;;14.40;99.90;;;;;;5095546;28;19904;-75
2022/10/16 04:39:17;;;;;;;;;;;14.40;99.90;;;;;;5095016;28;19904;-74
2022/10/16 04:41:42;;;;;;;;;;;14.50;99.90;;;;;;5095077;28;19904;-75
2022/10/16 04:44:08;;;;;;;;;;;14.50;99.90;;;;;;5094983;28;19910;-74
2022/10/16 04:46:33;;;;;;;;;;;14.50;99.90;;;;;;5094865;28;20398;-75
2022/10/16 04:48:59;;;;;;;;;;;14.50;99.90;;;;;;5095211;28;19904;-74
2022/10/16 04:51:25;;;;;;;;;;;14.50;99.90;;;;;;5094942;28;19957;-75
2022/10/16 04:53:51;;;;;;;;;;;14.50;99.90;;;;;;5094878;28;19915;-74
2022/10/16 04:56:16;;;;;;;;;;;14.40;99.90;;;;;;5094570;28;19908;-74
2022/10/16 04:58:42;;;;;;;;;;;14.50;99.90;;;;;;5094904;28;19911;-75
2022/10/16 05:01:08;;;;;;;;;;;14.50;99.90;;;;;;5076469;28;19911;-75
2022/10/16 05:03:33;;;;;;;;;;;14.50;99.90;;;;;;5095064;28;19911;-74
2022/10/16 05:05:59;;;;;;;;;;;14.50;99.90;;;;;;5094472;28;19995;-74
2022/10/16 05:08:24;;;;;;;;;;;14.50;99.90;;;;;;5094418;28;19904;-75
2022/10/16 05:10:50;;;;;;;;;;;14.50;99.90;;;;;;5094373;28;19962;-75
2022/10/16 05:13:15;;;;;;;;;;;14.50;99.90;;;;;;5076197;28;20395;-74
2022/10/16 05:15:41;;;;;;;;;;;14.50;99.90;;;;;;5094186;28;20284;-74
2022/10/16 05:18:06;;;;;;;;;;;14.50;99.90;;;;;;5094510;28;19907;-74
2022/10/16 05:20:32;;;;;;;;;;;14.50;99.90;;;;;;5093415;28;19957;-74
2022/10/16 05:22:57;;;;;;;;;;;14.50;99.90;;;;;;5094738;28;19904;-74
2022/10/16 05:25:23;;;;;;;;;;;14.50;99.90;;;;;;5094492;28;19911;-75
2022/10/16 05:27:49;;;;;;;;;;;14.50;99.90;;;;;;5094123;28;19904;-74
2022/10/16 05:30:15;;;;;;;;;;;14.50;99.90;;;;;;5093359;28;20391;-74
2022/10/16 05:32:41;;;;;;;;;;;14.50;99.90;;;;;;5094338;28;19904;-75
2022/10/16 05:35:06;;;;;;;;;;;14.50;99.90;;;;;;5094063;28;19908;-75
2022/10/16 05:37:32;;;;;;;;;;;14.40;99.90;;;;;;5094024;28;20298;-75
2022/10/16 05:39:57;;;;;;;;;;;14.50;99.90;;;;;;5094535;28;19996;-74
2022/10/16 05:42:23;;;;;;;;;;;14.50;99.90;;;;;;5093975;28;20382;-74
2022/10/16 05:44:49;;;;;;;;;;;14.50;99.90;;;;;;5093991;28;19908;-75
2022/10/16 05:47:14;;;;;;;;;;;14.50;99.90;;;;;;5094528;28;19949;-74
2022/10/16 05:49:40;;;;;;;;;;;14.60;99.90;;;;;;5094232;28;19903;-75
2022/10/16 05:52:05;;;;;;;;;;;14.50;99.90;;;;;;5093903;28;20326;-75
2022/10/16 05:54:31;;;;;;;;;;;14.60;99.90;;;;;;5093781;28;19914;-74
2022/10/16 05:56:56;;;;;;;;;;;14.60;99.90;;;;;;5094188;28;19911;-74
2022/10/16 05:59:22;;;;;;;;;;;14.60;99.90;;;;;;5094240;28;19907;-75
2022/10/16 06:01:47;;;;;;;;;;;14.60;99.90;;;;;;5093899;28;20390;-74
2022/10/16 06:04:13;;;;;;;;;;;14.60;99.90;;;;;;5075720;28;19999;-74
2022/10/16 06:06:39;;;;;;;;;;;14.60;99.90;;;;;;5094125;28;19953;-74
2022/10/16 06:09:04;;;;;;;;;;;14.70;99.90;;;;;;5093787;28;20250;-75
2022/10/16 06:11:31;;;;;;;;;;;14.60;99.90;;;;;;5094043;28;19904;-75
2022/10/16 06:13:58;;;;;;;;;;;14.60;99.90;;;;;;5094552;28;20309;-75
2022/10/16 06:16:25;;;;;;;;;;;14.60;99.90;;;;;;5093733;28;19971;-74
2022/10/16 06:18:51;;;;;;;;;;;14.60;99.90;;;;;;5093751;28;19911;-75
2022/10/16 06:21:17;;;;;;;;;;;14.60;99.90;;;;;;5093625;28;20257;-74
2022/10/16 06:23:43;;;;;;;;;;;14.70;99.90;;;;;;5093634;28;19946;-74
2022/10/16 06:26:09;;;;;;;;;;;14.70;99.90;;;;;;5075494;28;20280;-75
2022/10/16 06:28:35;;;;;;;;;;;14.70;99.90;;;;;;5093870;28;19904;-75
2022/10/16 06:31:02;;;;;;;;;;;14.70;99.90;;;;;;5093363;28;19999;-77
2022/10/16 06:33:27;;;;;;;;;;;14.70;99.90;;;;;;5079023;28;19912;-77
2022/10/16 06:35:53;;;;;;;;;;;14.70;99.90;;;;;;5097329;28;20348;-75
2022/10/16 06:38:18;;;;;;;;;;;14.70;99.90;;;;;;5097322;28;20363;-74
2022/10/16 06:40:44;;;;;;;;;;;14.70;99.90;;;;;;5097264;28;19904;-75
2022/10/16 06:43:09;;;;;;;;;;;14.70;99.90;;;;;;5097316;28;19908;-74
2022/10/16 06:45:34;;;;;;;;;;;14.70;99.90;;;;;;5097054;28;20395;-74
2022/10/16 06:48:00;;;;;;;;;;;14.70;99.90;;;;;;5097053;28;19904;-75
2022/10/16 06:50:25;;;;;;;;;;;14.80;99.90;;;;;;5097270;28;19914;-74
2022/10/16 06:52:51;;;;;;;;;;;14.70;99.90;;;;;;5097085;28;20387;-75
2022/10/16 06:55:17;;;;;;;;;;;14.70;99.90;;;;;;5097263;28;19904;-74
2022/10/16 06:57:43;;;;;;;;;;;14.80;99.90;;;;;;5096793;28;20356;-74
2022/10/16 07:00:08;;;;;;;;;;;14.80;99.90;;;;;;5097092;28;19911;-74
2022/10/16 07:02:34;;;;;;;;;;;14.80;99.90;;;;;;5096635;28;19906;-74
2022/10/16 07:04:59;;;;;;;;;;;14.70;99.90;;;;;;5096565;28;19934;-74
2022/10/16 07:07:26;;;;;;;;;;;14.80;99.90;;;;;;5096910;28;19904;-74
2022/10/16 07:09:52;;;;;;;;;;;14.80;99.90;;;;;;5096862;28;20440;-75
2022/10/16 07:12:17;;;;;;;;;;;14.80;99.90;;;;;;5096940;28;19994;-75
2022/10/16 07:14:43;;;;;;;;;;;14.90;99.90;;;;;;5096461;28;19946;-75
2022/10/16 07:17:08;;;;;;;;;;;14.90;99.90;;;;;;5078389;28;19905;-74
2022/10/16 07:19:34;;;;;;;;;;;14.90;99.90;;;;;;5096863;28;19904;-75
2022/10/16 07:22:00;;;;;;;;;;;15.00;99.90;;;;;;5096463;28;19904;-75
2022/10/16 07:24:25;;;;;;;;;;;15.00;99.90;;;;;;5096808;28;19936;-75
2022/10/16 07:26:51;;;;;;;;;;;15.00;99.90;;;;;;5096350;28;19904;-74
2022/10/16 07:29:18;;;;;;;;;;;15.10;99.90;;;;;;5078026;28;20041;-74
2022/10/16 07:31:44;;;;;;;;;;;15.00;99.90;;;;;;5096059;28;20318;-75
2022/10/16 07:34:11;;;;;;;;;;;15.10;99.90;;;;;;5096742;28;19904;-75
2022/10/16 07:36:37;;;;;;;;;;;15.20;99.90;;;;;;5096050;28;19908;-74
2022/10/16 07:39:03;;;;;;;;;;;15.20;99.90;;;;;;5096156;28;19911;-74
2022/10/16 07:41:28;;;;;;;;;;;15.30;99.90;;;;;;5095942;28;19904;-75
2022/10/16 07:43:54;;;;;;;;;;;15.40;99.90;;;;;;5095068;28;19961;-74
2022/10/16 07:46:21;;;;;;;;;;;15.50;99.90;;;;;;5096239;28;19904;-75
2022/10/16 07:48:47;;;;;;;;;;;15.70;99.90;;;;;;5095808;28;19998;-75
2022/10/16 07:51:14;;;;;;;;;;;15.80;99.90;;;;;;5095962;28;19904;-75
2022/10/16 07:53:39;;;;;;;;;;;15.90;99.90;;;;;;5077756;28;19904;-75
2022/10/16 07:56:06;;;;;;;;;;;15.90;99.90;;;;;;5095979;28;20276;-74
2022/10/16 07:58:32;;;;;;;;;;;15.90;99.90;;;;;;5096017;28;19904;-75
2022/10/16 08:00:58;;;;;;;;;;;15.90;99.90;;;;;;5095699;28;20458;-74
2022/10/16 08:03:24;;;;;;;;;;;15.90;99.90;;;;;;5077470;28;19912;-75
2022/10/16 08:05:51;;;;;;;;;;;15.90;99.90;;;;;;5095593;28;19911;-74
2022/10/16 08:08:17;;;;;;;;;;;15.90;99.90;;;;;;5077209;28;20268;-75
2022/10/16 08:10:43;;;;;;;;;;;15.90;99.90;;;;;;5095566;28;19991;-75
2022/10/16 08:13:09;;;;;;;;;;;15.80;99.90;;;;;;5095401;28;19947;-75
2022/10/16 08:15:34;;;;;;;;;;;15.80;99.90;;;;;;5095427;28;19904;-74
2022/10/16 08:18:01;;;;;;;;;;;15.70;99.90;;;;;;5095356;28;19904;-75
2022/10/16 08:20:27;;;;;;;;;;;15.80;99.90;;;;;;5095674;28;19908;-74
2022/10/16 08:22:54;;;;;;;;;;;15.90;99.90;;;;;;5095105;28;19954;-76
2022/10/16 08:25:20;;;;;;;;;;;15.90;99.90;;;;;;5095703;28;19949;-75
2022/10/16 08:27:45;;;;;;;;;;;16.00;99.90;;;;;;5095516;28;20318;-75
2022/10/16 08:30:11;;;;;;;;;;;16.00;99.90;;;;;;5094570;28;19904;-74
2022/10/16 08:32:36;;;;;;;;;;;16.00;99.90;;;;;;5095452;28;19908;-75
2022/10/16 08:35:02;;;;;;;;;;;16.00;99.90;;;;;;5095042;28;20276;-74
2022/10/16 08:37:31;;;;;;;;;;;15.90;99.90;;;;;;5076912;28;20046;-74
2022/10/16 08:39:57;;;;;;;;;;;16.00;99.90;;;;;;5094994;28;19994;-74
2022/10/16 08:42:22;;;;;;;;;;;15.90;99.90;;;;;;5094926;28;19947;-74
2022/10/16 08:44:54;;;;;;;;;;;15.90;99.90;;;;;;5076607;28;19912;-74
2022/10/16 08:47:22;;;;;;;;;;;15.90;99.90;;;;;;5095092;28;19942;-74
2022/10/16 08:50:01;;;;;;;;;;;15.80;99.90;;;;;;5094732;28;19908;-74
2022/10/16 08:52:32;;;;;;;;;;;15.80;99.90;;;;;;5094701;28;19904;-74
2022/10/16 08:54:58;;;;;;;;;;;15.80;99.90;;;;;;5095036;28;19904;-74
2022/10/16 08:57:25;;;;;;;;;;;15.80;99.90;;;;;;5094534;28;20411;-74
2022/10/16 08:59:51;;;;;;;;;;;15.80;99.90;;;;;;5094782;28;19949;-74
2022/10/16 09:02:23;;;;;;;;;;;15.90;99.90;;;;;;5094530;28;19908;-75
2022/10/16 09:05:03;;;;;;;;;;;15.80;99.90;;;;;;5094724;28;20006;-75
2022/10/16 09:07:38;;;;;;;;;;;15.90;99.90;;;;;;5094819;28;19911;-74
2022/10/16 09:10:04;;;;;;;;;;;15.90;99.90;;;;;;5095082;28;19999;-75
2022/10/16 09:12:32;;;;;;;;;;;15.90;99.90;;;;;;5094638;28;19958;-74
2022/10/16 09:15:20;;;;;;;;;;;15.90;99.90;;;;;;5094552;28;19904;-75
2022/10/16 09:17:52;;;;;;;;;;;15.90;99.90;;;;;;5094619;28;20003;-75
2022/10/16 09:20:17;;;;;;;;;;;15.90;99.90;;;;;;5094212;28;20372;-75
2022/10/16 09:22:43;;;;;;;;;;;15.90;99.90;;;;;;5094414;28;19934;-74
2022/10/16 09:25:13;;;;;;;;;;;15.90;99.90;;;;;;5094133;28;19904;-76
2022/10/16 09:27:39;;;;;;;;;;;15.90;99.90;;;;;;5094177;28;19908;-76
2022/10/16 09:30:15;;;;;;;;;;;15.90;99.90;;;;;;5093808;28;19957;-75
2022/10/16 09:32:41;;;;;;;;;;;16.00;99.90;;;;;;5094016;28;19904;-74
2022/10/16 09:35:18;;;;;;;;;;;16.00;99.90;;;;;;5094210;28;20003;-73
2022/10/16 09:37:45;;;;;;;;;;;16.10;99.90;;;;;;5094053;28;19947;-75
2022/10/16 09:40:28;;;;;;;;;;;16.20;99.90;;;;;;5094377;28;19930;-74
2022/10/16 09:42:57;;;;;;;;;;;16.20;99.90;;;;;;5093987;28;19953;-74
2022/10/16 09:45:23;;;;;;;;;;;16.30;99.90;;;;;;5094243;28;19953;-74
2022/10/16 09:47:49;;;;;;;;;;;16.30;99.90;;;;;;5093847;28;19908;-74
2022/10/16 09:50:23;;;;;;;;;;;16.30;99.90;;;;;;5094170;28;19904;-75
2022/10/16 09:52:49;;;;;;;;;;;16.30;99.90;;;;;;5093941;28;19907;-75
2022/10/16 09:55:16;;;;;;;;;;;16.40;99.90;;;;;;5094299;28;20279;-75
2022/10/16 09:57:51;;;;;;;;;;;16.40;99.90;;;;;;5093705;28;19904;-75
2022/10/16 10:00:18;;;;;;;;;;;16.40;99.90;;;;;;5094126;28;19957;-74
2022/10/16 10:02:44;;;;;;;;;;;16.50;99.90;;;;;;5093760;28;19911;-74
2022/10/16 10:05:21;;;;;;;;;;;16.50;99.90;;;;;;5075806;28;20345;-75
2022/10/16 10:07:53;;;;;;;;;;;16.50;99.90;;;;;;5097341;28;20378;-74
2022/10/16 10:10:20;;;;;;;;;;;16.50;99.90;;;;;;5097781;28;19904;-74
2022/10/16 10:12:46;;;;;;;;;;;16.50;99.90;;;;;;5097760;28;19911;-75
2022/10/16 10:15:12;;;;;;;;;;;16.40;99.90;;;;;;5097998;28;19904;-74
2022/10/16 10:17:50;;;;;;;;;;;16.40;99.90;;;;;;5097846;28;19957;-75
2022/10/16 10:20:27;;;;;;;;;;;16.40;99.90;;;;;;5097868;28;19904;-75
2022/10/16 10:22:53;;;;;;;;;;;16.30;99.90;;;;;;5097477;28;19938;-74
2022/10/16 10:25:23;;;;;;;;;;;16.30;99.90;;;;;;5097831;28;19997;-74
2022/10/16 10:27:52;;;;;;;;;;;16.30;99.90;;;;;;5097438;28;20015;-74
2022/10/16 10:30:17;;;;;;;;;;;16.20;99.90;;;;;;5096731;28;19924;-74
2022/10/16 10:32:49;;;;;;;;;;;16.20;99.90;;;;;;5097719;28;19904;-74
2022/10/16 10:35:34;;;;;;;;;;;16.10;99.90;;;;;;5097293;28;19911;-74
2022/10/16 10:38:18;;;;;;;;;;;16.00;99.90;;;;;;5097265;28;19907;-75
2022/10/16 10:40:46;;;;;;;;;;;16.00;99.90;;;;;;5097319;28;19926;-74
2022/10/16 10:43:47;;;;;;;;;;;15.90;99.90;;;;;;5097068;28;20272;-74
2022/10/16 10:46:22;;;;;;;;;;;15.80;99.90;;;;;;5015253;28;20274;-74
2022/10/16 10:48:51;;;;;;;;;;;15.80;99.90;;;;;;5085397;28;19904;-75
2022/10/16 10:51:25;;;;;;;;;;;15.70;99.90;;;;;;5096971;28;19969;-74
2022/10/16 10:54:04;;;;;;;;;;;15.60;99.90;;;;;;5097475;28;19940;-75
2022/10/16 10:56:45;;;;;;;;;;;15.50;99.90;;;;;;5096985;28;19911;-75
2022/10/16 10:59:22;;;;;;;;;;;15.50;99.90;;;;;;5097221;28;20379;-75
2022/10/16 11:01:55;;;;;;;;;;;15.40;99.90;;;;;;5097198;28;19903;-75
2022/10/16 11:04:29;;;;;;;;;;;15.50;99.90;;;;;;5078615;28;20007;-74
2022/10/16 11:06:57;;;;;;;;;;;15.40;99.90;;;;;;5097126;28;19904;-74
2022/10/16 11:09:27;;;;;;;;;;;15.40;99.90;;;;;;5096673;28;19904;-74
2022/10/16 11:11:59;;;;;;;;;;;15.30;99.90;;;;;;5096952;28;19987;-74
2022/10/16 11:14:31;;;;;;;;;;;15.20;99.90;;;;;;5096559;28;19905;-75
2022/10/16 11:16:59;;;;;;;;;;;15.00;99.90;;;;;;5097010;28;19919;-75
2022/10/16 11:19:37;;;;;;;;;;;15.00;99.90;;;;;;5095222;28;19943;-74
2022/10/16 11:22:14;;;;;;;;;;;14.90;99.90;;;;;;5096707;28;19990;-75
2022/10/16 11:24:46;;;;;;;;;;;14.90;99.90;;;;;;5096317;28;19915;-75
2022/10/16 11:27:15;;;;;;;;;;;14.90;99.90;;;;;;5096786;28;19908;-74
2022/10/16 11:29:45;;;;;;;;;;;14.90;99.90;;;;;;5096276;28;19949;-74
2022/10/16 11:32:19;;;;;;;;;;;14.90;99.90;;;;;;5095772;28;20002;-74
2022/10/16 11:34:47;;;;;;;;;;;15.00;99.90;;;;;;5096395;28;19904;-74
2022/10/16 11:37:25;;;;;;;;;;;15.10;99.90;;;;;;5096306;28;19904;-75
2022/10/16 11:39:54;;;;;;;;;;;15.10;99.90;;;;;;5096455;28;19953;-74
2022/10/16 11:42:27;;;;;;;;;;;15.20;99.90;;;;;;5096011;28;20375;-74
2022/10/16 11:44:52;;;;;;;;;;;15.30;99.90;;;;;;5096245;28;19912;-75
2022/10/16 11:47:27;;;;;;;;;;;15.30;99.90;;;;;;5096122;28;19904;-75
2022/10/16 11:49:58;;;;;;;;;;;15.40;99.90;;;;;;5077723;28;19927;-74
2022/10/16 11:52:42;;;;;;;;;;;15.40;99.90;;;;;;5096445;28;19911;-75
2022/10/16 11:55:07;;;;;;;;;;;15.40;99.90;;;;;;5077670;28;20367;-74
2022/10/16 11:57:34;;;;;;;;;;;15.30;99.90;;;;;;5095769;28;19987;-74
2022/10/16 12:00:14;;;;;;;;;;;15.30;99.90;;;;;;5095600;28;19904;-74
2022/10/16 12:02:55;;;;;;;;;;;15.30;99.90;;;;;;5096067;28;19911;-75
2022/10/16 12:05:31;;;;;;;;;;;15.30;99.90;;;;;;5095670;28;19948;-74
2022/10/16 12:08:16;;;;;;;;;;;15.40;99.90;;;;;;5095897;28;20257;-75
2022/10/16 12:10:43;;;;;;;;;;;15.50;99.90;;;;;;5096094;28;20344;-74
2022/10/16 12:13:48;;;;;;;;;;;15.60;99.90;;;;;;5095492;28;20261;-74
2022/10/16 12:16:13;;;;;;;;;;;15.60;99.90;;;;;;5013803;28;19951;-74
2022/10/16 12:18:40;;;;;;;;;;;15.70;99.90;;;;;;4997080;28;19906;-75
2022/10/16 12:21:06;;;;;;;;;;;15.80;99.90;;;;;;5052224;28;19904;-74
2022/10/16 12:23:52;;;;;;;;;;;15.90;99.90;;;;;;5076970;28;19908;-75
2022/10/16 12:26:44;;;;;;;;;;;15.90;99.90;;;;;;5094438;28;20010;-75
2022/10/16 12:29:28;;;;;;;;;;;15.90;99.90;;;;;;5090590;28;19987;-74
2022/10/16 12:31:53;;;;;;;;;;;15.90;99.90;;;;;;5073332;28;19912;-75
2022/10/16 12:34:26;;;;;;;;;;;15.90;99.90;;;;;;5075143;28;20280;-75
2022/10/16 12:36:53;;;;;;;;;;;15.80;99.90;;;;;;5074682;28;19911;-74
2022/10/16 12:39:25;;;;;;;;;;;15.90;99.90;;;;;;5075315;28;19904;-74
2022/10/16 12:42:04;;;;;;;;;;;15.80;99.90;;;;;;5074695;28;19961;-75
2022/10/16 12:44:34;;;;;;;;;;;15.80;99.90;;;;;;5074731;28;19954;-74
2022/10/16 12:47:00;;;;;;;;;;;15.80;99.90;;;;;;5074646;28;19972;-75
2022/10/16 12:49:36;;;;;;;;;;;15.80;99.90;;;;;;5074814;28;20349;-76
2022/10/16 12:52:03;;;;;;;;;;;15.90;99.90;;;;;;5074415;28;19911;-75
2022/10/16 12:54:29;;;;;;;;;;;16.00;99.90;;;;;;5073148;28;19904;-74
2022/10/16 12:57:04;;;;;;;;;;;16.00;99.90;;;;;;5073080;28;20046;-74
2022/10/16 12:59:29;;;;;;;;;;;15.90;99.90;;;;;;5074637;28;19998;-73
2022/10/16 13:01:58;;;;;;;;;;;15.90;99.90;;;;;;5074928;28;20387;-75
2022/10/16 13:04:44;;;;;;;;;;;15.90;99.90;;;;;;5074150;28;19958;-74
2022/10/16 13:07:25;;;;;;;;;;;15.90;99.90;;;;;;5033695;28;19997;-74
2022/10/16 13:10:06;;;;;;;;;;;16.00;99.90;;;;;;5074481;28;20004;-74
2022/10/16 13:12:45;;;;;;;;;;;16.00;99.90;;;;;;5072093;28;19904;-74
2022/10/16 13:15:17;;;;;;;;;;;16.10;99.90;;;;;;5074747;28;19997;-74
2022/10/16 13:17:48;;;;;;;;;;;16.10;99.90;;;;;;5072844;28;20394;-74
2022/10/16 13:20:32;;;;;;;;;;;16.10;99.90;;;;;;5074135;28;19908;-75
2022/10/16 13:22:58;;;;;;;;;;;16.10;99.90;;;;;;5074354;28;19904;-75
2022/10/16 13:25:26;;;;;;;;;;;16.20;99.90;;;;;;5074453;28;20323;-74
2022/10/16 13:27:52;;;;;;;;;;;16.20;99.90;;;;;;5072630;28;20368;-75
2022/10/16 13:30:20;;;;;;;;;;;16.20;99.90;;;;;;5076283;28;19940;-74
2022/10/16 13:32:47;;;;;;;;;;;16.20;99.90;;;;;;5094476;28;19911;-74
2022/10/16 13:35:24;;;;;;;;;;;16.10;99.90;;;;;;5094185;28;19904;-74
2022/10/16 13:37:50;;;;;;;;;;;16.20;99.90;;;;;;5094147;28;19904;-74
2022/10/16 13:40:20;;;;;;;;;;;16.10;99.90;;;;;;5094327;28;20348;-74
2022/10/16 13:42:45;;;;;;;;;;;16.10;99.90;;;;;;5093561;28;20007;-74
2022/10/16 13:45:18;;;;;;;;;;;16.10;99.90;;;;;;5094327;28;20356;-74
2022/10/16 13:47:43;;;;;;;;;;;16.10;99.90;;;;;;5094028;28;19904;-75
2022/10/16 13:50:11;;;;;;;;;;;16.10;99.90;;;;;;5094717;28;19911;-75
2022/10/16 13:52:38;;;;;;;;;;;16.10;99.90;;;;;;5093916;28;19908;-75
2022/10/16 13:55:04;;;;;;;;;;;16.10;99.90;;;;;;5094032;28;19947;-75
2022/10/16 13:57:30;;;;;;;;;;;16.20;99.90;;;;;;5093933;28;20394;-75
2022/10/16 13:59:55;;;;;;;;;;;16.30;99.90;;;;;;5093929;28;19904;-74
2022/10/16 14:02:21;;;;;;;;;;;16.40;99.90;;;;;;5094101;28;19908;-75
2022/10/16 14:04:46;;;;;;;;;;;16.50;99.90;;;;;;5094194;28;19947;-74
2022/10/16 14:07:19;;;;;;;;;;;16.50;99.90;;;;;;5075730;28;20329;-74
2022/10/16 14:09:47;;;;;;;;;;;16.60;99.90;;;;;;5093702;28;20447;-75
2022/10/16 14:12:13;;;;;;;;;;;16.60;99.90;;;;;;5093699;28;19904;-75
2022/10/16 14:14:43;;;;;;;;;;;16.60;99.90;;;;;;5093993;28;19957;-75
2022/10/16 14:17:16;;;;;;;;;;;16.60;99.90;;;;;;5093741;28;20272;-75
2022/10/16 14:19:45;;;;;;;;;;;16.60;99.90;;;;;;5093950;28;20352;-75
2022/10/16 14:22:24;;;;;;;;;;;16.60;99.90;;;;;;5075531;28;19914;-75
2022/10/16 14:24:49;;;;;;;;;;;16.60;99.90;;;;;;5093903;28;19908;-74
2022/10/16 14:27:41;;;;;;;;;;;16.60;99.90;;;;;;5093631;28;19911;-75